Terminal Aerodrome Forecast
Issued by NWS

Home | Current Version | Previous Version | Graphics & Text | Print | Product List | Glossary On
Versions: 1 2 3 4 5 6 7 8 9 10 11 12 13
921
FTUS43 KICT 211140
TAFSLN
TAF
KSLN 211140Z 2112/2212 05013KT P6SM SCT050 OVC300
     FM211500 04017G22KT P6SM OVC050=

USA.gov is the U.S. government's official web portal to all federal, state and local government web resources and services.